This is the latest recevied weather packets stored in our database for station/object DB0RSR-12. If no packets are shown the sender has not sent any weather packets the latest 10 day(s).
| Time | Temp. | Humidity | Pressure | Rain* | Wind** | Luminosity | Snow |
|---|---|---|---|---|---|---|---|
| 1777535745 | 15.56° C | 30% | 1018 hPa | - | - | - | - |
| 1777534845 | 14.44° C | 31% | 1018 hPa | - | - | - | - |
| 1777533945 | 13.33° C | 33% | 1018 hPa | - | - | - | - |
| 1777533045 | 12.22° C | 39% | 1018 hPa | - | - | - | - |
| 1777532145 | 10.56° C | 44% | 1018 hPa | - | - | - | - |
| 1777531244 | 8.89° C | 48% | 1018 hPa | - | - | - | - |
| 1777530344 | 7.78° C | 48% | 1018 hPa | - | - | - | - |
| 1777529444 | 6.67° C | 50% | 1018 hPa | - | - | - | - |
| 1777528544 | 6.11° C | 50% | 1018 hPa | - | - | - | - |
| 1777527644 | 6.11° C | 50% | 1017 hPa | - | - | - | - |
| 1777526744 | 5.56° C | 50% | 1017 hPa | - | - | - | - |
| 1777525844 | 5.56° C | 50% | 1017 hPa | - | - | - | - |
| 1777524944 | 5° C | 51% | 1017 hPa | - | - | - | - |
| 1777524044 | 5° C | 51% | 1017 hPa | - | - | - | - |
| 1777523144 | 5° C | 50% | 1017 hPa | - | - | - | - |
| 1777522244 | 5° C | 49% | 1017 hPa | - | - | - | - |
| 1777521344 | 5° C | 49% | 1017 hPa | - | - | - | - |
| 1777520444 | 5.56° C | 48% | 1017 hPa | - | - | - | - |
| 1777519544 | 5.56° C | 48% | 1017 hPa | - | - | - | - |
| 1777518644 | 5.56° C | 47% | 1017 hPa | - | - | - | - |
| 1777517744 | 5.56° C | 47% | 1017 hPa | - | - | - | - |
| 1777516843 | 6.11° C | 47% | 1017 hPa | - | - | - | - |
| 1777515943 | 6.11° C | 46% | 1017 hPa | - | - | - | - |
| 1777515043 | 6.11° C | 46% | 1017 hPa | - | - | - | - |
| 1777514143 | 6.11° C | 46% | 1017 hPa | - | - | - | - |
* Rain since midnight (hover to see other rain measurements)
** Current wind speed in m/s (hover to see current wind gust speed)